Terminal Aerodrome Forecast
Issued by NWS Cleveland, OH

Home | Current Version | Previous Version | Graphics & Text | Print | Product List | Glossary On
Versions: 1 2 3 4 5 6 7 8 9 10 11 12
000
FTUS41 KCLE 030520
TAFERI
TAF
KERI 030520Z 0306/0406 VRB03KT P6SM SKC
     FM031400 05006KT P6SM SCT250
     FM031800 03010KT P6SM SCT120 BKN250
     FM040000 05005KT P6SM VCSH SCT045 BKN120=

USA.gov is the U.S. government's official web portal to all federal, state and local government web resources and services.